Time;durP1;ratioP1;P1;durP2;ratioP2;P2;SDS_P1;SDS_P2;PMS_P1;PMS_P2;Temp;Humidity;BMP_temperature;BMP_pressure;BME280_temperature;BME280_humidity;BME280_pressure;Samples;Min_cycle;Max_cycle;Signal;HPM_P1;HPM_P2
2023/01/23 00:01:17;;;;;;;17.95;7.82;;;-2.80;99.90;;;;;;5067526;28;20089;-60
2023/01/23 00:03:44;;;;;;;19.08;8.45;;;-2.70;99.90;;;;;;5089867;28;20097;-60
2023/01/23 00:06:13;;;;;;;16.45;7.05;;;-2.70;99.90;;;;;;5090924;28;20047;-60
2023/01/23 00:08:41;;;;;;;17.42;7.43;;;-2.70;99.90;;;;;;5078618;28;20520;-61
2023/01/23 00:11:10;;;;;;;14.02;6.28;;;-2.70;99.90;;;;;;5085969;28;20064;-61
2023/01/23 00:13:38;;;;;;;12.80;5.75;;;-2.70;99.90;;;;;;5080691;28;20105;-61
2023/01/23 00:16:11;;;;;;;13.88;6.03;;;-2.70;99.90;;;;;;5079204;28;20040;-62
2023/01/23 00:18:37;;;;;;;11.40;5.97;;;-2.70;99.90;;;;;;5090132;28;20054;-58
2023/01/23 00:21:12;;;;;;;15.10;6.75;;;-2.70;99.90;;;;;;5090222;28;20044;-61
2023/01/23 00:23:42;;;;;;;15.15;5.70;;;-2.80;99.90;;;;;;5089976;28;20432;-61
2023/01/23 00:26:15;;;;;;;16.25;6.50;;;-2.80;99.90;;;;;;5096466;28;20064;-61
2023/01/23 00:28:45;;;;;;;11.00;5.70;;;-2.80;99.90;;;;;;5102440;28;20040;-62
2023/01/23 00:31:15;;;;;;;14.10;6.38;;;-2.90;99.90;;;;;;5073018;28;20044;-61
2023/01/23 00:33:43;;;;;;;15.60;6.18;;;-3.00;99.90;;;;;;5071345;28;20044;-62
2023/01/23 00:36:11;;;;;;;12.20;5.85;;;-3.00;99.90;;;;;;5091014;28;20048;-62
2023/01/23 00:38:38;;;;;;;16.80;6.15;;;-3.00;99.90;;;;;;5073595;28;20044;-62
2023/01/23 00:41:05;;;;;;;15.15;6.25;;;-3.00;99.90;;;;;;5081246;28;20594;-63
2023/01/23 00:43:32;;;;;;;;;;;-3.10;99.90;;;;;;5085467;28;20582;-62
2023/01/23 00:45:59;;;;;;;10.75;5.00;;;-3.10;99.90;;;;;;5090579;28;19920;-61
2023/01/23 00:48:26;;;;;;;15.23;5.93;;;-3.20;99.90;;;;;;5071208;28;20117;-62
2023/01/23 00:50:53;;;;;;;12.48;5.65;;;-3.20;99.90;;;;;;5072653;28;20381;-62
2023/01/23 00:53:20;;;;;;;12.23;5.35;;;-3.30;99.90;;;;;;5092598;28;20047;-61
2023/01/23 00:55:47;;;;;;;14.23;6.18;;;-3.40;99.90;;;;;;5077678;28;20072;-55
2023/01/23 00:58:13;;;;;;;15.60;6.22;;;-3.50;99.90;;;;;;5062886;28;20074;-56
2023/01/23 01:00:40;;;;;;;12.63;5.82;;;-3.50;99.90;;;;;;5059871;28;20523;-55
2023/01/23 01:03:08;;;;;;;13.88;5.88;;;-3.60;99.90;;;;;;5075677;28;20281;-56
2023/01/23 01:05:35;;;;;;;;;;;-3.60;99.90;;;;;;5077555;28;20048;-54
2023/01/23 01:08:02;;;;;;;8.40;4.15;;;-3.70;99.90;;;;;;5098014;28;19927;-52
2023/01/23 01:10:31;;;;;;;14.07;5.65;;;-3.80;99.90;;;;;;5076859;28;20051;-54
2023/01/23 01:13:00;;;;;;;15.82;5.63;;;-3.80;99.90;;;;;;5076208;28;20044;-54
2023/01/23 01:15:27;;;;;;;11.98;5.30;;;-3.90;99.90;;;;;;5089290;28;20096;-57
2023/01/23 01:17:55;;;;;;;14.38;5.63;;;-3.80;99.90;;;;;;5077364;28;20389;-57
2023/01/23 01:20:24;;;;;;;13.43;5.05;;;-3.80;99.90;;;;;;5076285;28;20404;-57
2023/01/23 01:22:53;;;;;;;13.48;5.05;;;-3.70;99.90;;;;;;5074691;28;20044;-56
2023/01/23 01:25:38;;;;;;;10.05;5.20;;;-3.60;99.90;;;;;;5090251;28;20102;-57
2023/01/23 01:28:32;;;;;;;14.38;5.07;;;-3.50;99.90;;;;;;5086910;22;20505;-59
2023/01/23 01:31:13;;;;;;;12.63;5.03;;;-3.40;99.90;;;;;;5071076;28;20535;-59
2023/01/23 01:33:41;;;;;;;8.60;4.68;;;-3.30;99.90;;;;;;5037442;28;20103;-61
2023/01/23 01:36:13;;;;;;;11.57;4.85;;;-3.40;99.90;;;;;;5053497;28;20106;-61
2023/01/23 01:38:40;;;;;;;14.63;5.88;;;-3.40;99.90;;;;;;5054589;28;20041;-61
2023/01/23 01:41:07;;;;;;;12.60;5.75;;;-3.30;99.90;;;;;;5062194;28;20071;-61
2023/01/23 01:43:35;;;;;;;10.68;4.90;;;-3.20;99.90;;;;;;5057527;28;20036;-61
2023/01/23 01:46:16;;;;;;;10.98;4.75;;;-3.20;99.90;;;;;;5070053;28;20075;-61
2023/01/23 01:48:59;;;;;;;11.85;5.30;;;-3.20;99.90;;;;;;5046876;28;20099;-61
2023/01/23 01:51:44;;;;;;;12.65;5.65;;;-3.20;99.90;;;;;;5053805;28;20407;-61
2023/01/23 01:54:29;;;;;;;13.55;6.13;;;-3.30;99.90;;;;;;5040733;28;20036;-61
2023/01/23 01:57:10;;;;;;;14.30;5.95;;;-3.40;99.90;;;;;;5068915;28;20061;-61
2023/01/23 01:59:46;;;;;;;14.88;5.97;;;-3.40;99.90;;;;;;5072891;28;20045;-61
2023/01/23 02:02:17;;;;;;;16.52;5.47;;;-3.40;99.90;;;;;;5072209;28;20047;-61
2023/01/23 02:04:47;;;;;;;15.68;5.90;;;-3.40;99.90;;;;;;5073648;28;20044;-61
2023/01/23 02:07:24;;;;;;;13.88;5.63;;;-3.50;99.90;;;;;;5061639;28;20394;-61
2023/01/23 02:09:53;;;;;;;15.65;5.80;;;-3.50;99.90;;;;;;5045550;28;20041;-61
2023/01/23 02:12:20;;;;;;;12.25;5.32;;;-3.50;99.90;;;;;;5067651;28;20269;-61
2023/01/23 02:14:46;;;;;;;10.90;3.92;;;-3.50;99.90;;;;;;5053854;28;20041;-61
2023/01/23 02:17:13;;;;;;;11.68;4.97;;;-3.40;99.90;;;;;;5059425;28;20090;-61
2023/01/23 02:20:02;;;;;;;11.23;5.07;;;-3.40;99.90;;;;;;5051903;28;20045;-61
2023/01/23 02:23:00;;;;;;;14.38;5.65;;;-3.40;99.90;;;;;;5067838;28;20091;-61
2023/01/23 02:25:43;;;;;;;11.20;4.67;;;-3.40;99.90;;;;;;5061784;28;20040;-61
2023/01/23 02:28:14;;;;;;;14.57;6.30;;;-3.40;99.90;;;;;;5064307;28;20037;-61
2023/01/23 02:30:45;;;;;;;14.55;6.05;;;-3.30;99.90;;;;;;5068714;28;20286;-61
2023/01/23 02:33:18;;;;;;;19.17;6.97;;;-3.30;99.90;;;;;;5052046;28;20390;-61
2023/01/23 02:35:45;;;;;;;17.77;8.00;;;-3.30;99.90;;;;;;5053760;28;20040;-61
2023/01/23 02:38:13;;;;;;;17.83;8.20;;;-3.30;99.90;;;;;;5055257;28;20067;-61
2023/01/23 02:40:41;;;;;;;18.83;7.38;;;-3.40;99.90;;;;;;5070724;28;20075;-61
2023/01/23 02:43:18;;;;;;;17.00;7.60;;;-3.30;99.90;;;;;;5054891;28;20115;-61
2023/01/23 02:45:55;;;;;;;20.35;8.18;;;-3.30;99.90;;;;;;5051067;28;20501;-61
2023/01/23 02:48:23;;;;;;;21.08;7.63;;;-3.30;99.90;;;;;;5035602;28;20049;-61
2023/01/23 02:50:49;;;;;;;23.55;8.45;;;-3.30;99.90;;;;;;5064316;28;20164;-61
2023/01/23 02:53:17;;;;;;;16.23;7.32;;;-3.30;99.90;;;;;;5053815;28;20044;-61
2023/01/23 02:55:43;;;;;;;19.90;8.15;;;-3.30;99.90;;;;;;5051942;28;20045;-61
2023/01/23 03:00:56;;;;;;;18.17;7.95;;;-3.40;99.90;;;;;;5059508;28;20041;-61
2023/01/23 03:03:23;;;;;;;;;;;-3.20;99.90;;;;;;5051614;28;20555;-61
2023/01/23 03:05:50;;;;;;;17.50;6.10;;;-3.30;99.90;;;;;;5078776;28;20403;-61
2023/01/23 03:08:17;;;;;;;16.27;7.40;;;-3.30;99.90;;;;;;5046549;28;20052;-60
2023/01/23 03:10:44;;;;;;;18.58;7.20;;;-3.30;99.90;;;;;;5072620;28;20033;-61
2023/01/23 03:13:11;;;;;;;20.95;7.82;;;-3.30;99.90;;;;;;5071102;28;20382;-61
2023/01/23 03:15:40;;;;;;;18.90;7.82;;;-3.30;99.90;;;;;;5069874;28;20040;-61
2023/01/23 03:18:07;;;;;;;16.40;7.53;;;-3.30;99.90;;;;;;5053016;28;20041;-61
2023/01/23 03:20:39;;;;;;;18.50;7.40;;;-3.30;99.90;;;;;;5049986;28;20083;-61
2023/01/23 03:23:07;;;;;;;17.30;6.30;;;-3.30;99.90;;;;;;5058941;28;20045;-61
2023/01/23 03:25:34;;;;;;;15.48;7.30;;;-3.30;99.90;;;;;;5052191;28;20045;-61
2023/01/23 03:28:02;;;;;;;16.67;6.72;;;-3.40;99.90;;;;;;5070883;28;20129;-61
2023/01/23 03:30:29;;;;;;;18.30;6.78;;;-3.40;99.90;;;;;;5070424;28;20052;-61
2023/01/23 03:32:56;;;;;;;14.65;6.38;;;-3.50;99.90;;;;;;5067714;28;20545;-61
2023/01/23 03:35:22;;;;;;;16.45;5.95;;;-3.30;99.90;;;;;;5050239;28;20049;-61
2023/01/23 03:37:52;;;;;;;12.57;6.05;;;-3.50;99.90;;;;;;5066605;28;20098;-61
2023/01/23 03:43:09;;;;;;;13.98;6.22;;;-3.50;99.90;;;;;;5053482;28;20128;-61
2023/01/23 03:45:41;;;;;;;14.30;5.85;;;-3.50;99.90;;;;;;5051230;28;20049;-61
2023/01/23 03:48:08;;;;;;;15.63;6.47;;;-3.50;99.90;;;;;;5053144;28;20127;-61
2023/01/23 03:50:35;;;;;;;13.75;6.40;;;-3.40;99.90;;;;;;5043706;28;20056;-61
2023/01/23 03:53:02;;;;;;;18.38;6.65;;;-3.40;99.90;;;;;;5033500;28;20041;-61
2023/01/23 03:55:28;;;;;;;14.15;6.22;;;-3.40;99.90;;;;;;5050666;28;20048;-61
2023/01/23 03:57:55;;;;;;;14.70;6.88;;;-3.40;99.90;;;;;;5068883;28;20047;-61
2023/01/23 04:00:30;;;;;;;15.43;6.45;;;-3.30;99.90;;;;;;5036189;28;20033;-61
2023/01/23 04:03:04;;;;;;;15.88;6.13;;;-3.30;99.90;;;;;;5065949;28;20037;-61
2023/01/23 04:05:31;;;;;;;16.25;7.05;;;-3.20;99.90;;;;;;5051384;28;20051;-61
2023/01/23 04:07:59;;;;;;;18.05;8.20;;;-3.20;99.90;;;;;;5053402;28;20044;-61
2023/01/23 04:10:26;;;;;;;;;;;-3.30;99.90;;;;;;5069387;28;20574;-61
2023/01/23 04:12:58;;;;;;;14.77;6.80;;;-3.40;99.90;;;;;;5049138;28;20396;-60
2023/01/23 04:15:25;;;;;;;15.93;7.32;;;-3.30;99.90;;;;;;5070140;28;20043;-61
2023/01/23 04:17:55;;;;;;;16.42;6.80;;;-3.40;99.90;;;;;;5054986;28;20036;-62
2023/01/23 04:20:24;;;;;;;20.15;7.10;;;-3.30;99.90;;;;;;5050012;28;20047;-61
2023/01/23 04:22:51;;;;;;;19.02;7.70;;;-3.30;99.90;;;;;;5052275;28;20044;-61
2023/01/23 04:25:18;;;;;;;16.27;6.70;;;-3.30;99.90;;;;;;5053039;28;20040;-61
2023/01/23 04:27:46;;;;;;;13.85;5.70;;;-3.30;99.90;;;;;;5049686;28;20051;-61
2023/01/23 04:30:13;;;;;;;12.15;6.07;;;-3.30;99.90;;;;;;5050630;28;20127;-60
2023/01/23 04:32:40;;;;;;;;;;;-3.30;99.90;;;;;;5054652;28;20721;-61
2023/01/23 04:35:07;;;;;;;12.93;5.60;;;-3.30;99.90;;;;;;5052497;28;20019;-61
2023/01/23 04:37:36;;;;;;;11.43;4.95;;;-3.30;99.90;;;;;;5050095;28;20040;-61
2023/01/23 04:40:04;;;;;;;11.30;4.93;;;-3.30;99.90;;;;;;5060781;28;20100;-61
2023/01/23 04:42:39;;;;;;;8.63;4.18;;;-3.20;99.90;;;;;;5049127;28;20048;-61
2023/01/23 04:45:10;;;;;;;10.68;4.43;;;-3.20;99.90;;;;;;5051203;28;20041;-61
2023/01/23 04:48:15;;;;;;;9.95;4.47;;;-3.20;99.90;;;;;;5058948;28;20059;-61
2023/01/23 04:50:43;;;;;;;14.95;5.25;;;-3.20;99.90;;;;;;5070436;28;20132;-61
2023/01/23 04:53:10;;;;;;;12.13;5.25;;;-3.20;99.90;;;;;;5052480;28;20491;-61
2023/01/23 04:55:37;;;;;;;12.98;4.90;;;-3.10;99.90;;;;;;5068225;28;20036;-61
2023/01/23 04:58:06;;;;;;;14.10;5.35;;;-3.10;99.90;;;;;;5055217;28;20044;-61
2023/01/23 05:00:33;;;;;;;11.43;5.22;;;-3.10;99.90;;;;;;5055638;28;20045;-61
2023/01/23 05:03:02;;;;;;;11.52;5.30;;;-3.10;99.90;;;;;;5069449;28;20033;-61
2023/01/23 05:05:30;;;;;;;13.38;5.35;;;-3.00;99.90;;;;;;5051499;28;20049;-61
2023/01/23 05:07:59;;;;;;;14.30;5.95;;;-3.10;99.90;;;;;;5069225;28;20064;-61
2023/01/23 05:10:27;;;;;;;13.63;5.20;;;-3.00;99.90;;;;;;5067897;28;20510;-61
2023/01/23 05:12:56;;;;;;;13.00;5.63;;;-3.10;99.90;;;;;;5055587;28;20063;-61
2023/01/23 05:15:24;;;;;;;16.10;6.13;;;-3.00;99.90;;;;;;5071407;28;20048;-61
2023/01/23 05:17:51;;;;;;;13.38;5.47;;;-3.00;99.90;;;;;;5070172;28;20048;-61
2023/01/23 05:20:19;;;;;;;10.40;5.43;;;-3.10;99.90;;;;;;5052781;28;20140;-61
2023/01/23 05:22:52;;;;;;;13.68;5.22;;;-3.20;99.90;;;;;;5067931;28;20040;-61
2023/01/23 05:25:27;;;;;;;13.95;5.28;;;-3.10;99.90;;;;;;5052424;28;20477;-61
2023/01/23 05:27:55;;;;;;;12.85;5.22;;;-3.20;99.90;;;;;;5052503;28;20048;-61
2023/01/23 05:30:23;;;;;;;11.00;5.55;;;-3.10;99.90;;;;;;5069652;28;20049;-61
2023/01/23 05:32:56;;;;;;;14.73;5.60;;;-3.20;99.90;;;;;;5051799;28;20036;-60
2023/01/23 05:35:22;;;;;;;11.10;5.13;;;-3.20;99.90;;;;;;5054940;28;20049;-61
2023/01/23 05:37:52;;;;;;;10.55;5.30;;;-3.20;99.90;;;;;;5068730;28;20037;-62
2023/01/23 05:40:23;;;;;;;11.05;5.78;;;-3.20;99.90;;;;;;5065885;28;20036;-61
2023/01/23 05:43:16;;;;;;;17.52;6.45;;;-3.10;99.90;;;;;;5058729;28;20102;-61
2023/01/23 05:46:03;;;;;;;17.95;7.47;;;-3.10;99.90;;;;;;5068833;28;20059;-61
2023/01/23 05:48:38;;;;;;;17.55;7.55;;;-3.00;99.90;;;;;;5068513;28;20090;-61
2023/01/23 05:51:09;;;;;;;14.93;6.43;;;-3.00;99.90;;;;;;5068058;28;20051;-61
2023/01/23 05:53:36;;;;;;;13.52;5.80;;;-3.00;99.90;;;;;;5067201;28;20080;-61
2023/01/23 05:56:09;;;;;;;18.77;8.82;;;-3.00;99.90;;;;;;5073116;28;20041;-60
2023/01/23 05:58:48;;;;;;;16.65;7.40;;;-3.00;99.90;;;;;;5055646;28;20412;-60
2023/01/23 06:01:19;;;;;;;13.15;6.30;;;-3.10;99.90;;;;;;5051742;28;20425;-60
2023/01/23 06:04:04;;;;;;;13.43;5.15;;;-3.10;99.90;;;;;;5053334;28;20143;-60
2023/01/23 06:06:39;;;;;;;13.40;6.22;;;-3.20;99.90;;;;;;5062817;28;20427;-59
2023/01/23 06:09:08;;;;;;;14.18;6.07;;;-3.20;99.90;;;;;;5063539;28;20037;-59
2023/01/23 06:11:35;;;;;;;21.92;7.88;;;-3.10;99.90;;;;;;5070433;28;20424;-60
2023/01/23 06:14:03;;;;;;;22.92;8.40;;;-3.20;99.90;;;;;;5055247;28;20565;-62
2023/01/23 06:16:29;;;;;;;32.35;9.95;;;-3.20;99.90;;;;;;5057581;28;20074;-60
2023/01/23 06:18:56;;;;;;;27.40;8.88;;;-3.30;99.90;;;;;;5054990;28;20037;-60
2023/01/23 06:21:24;;;;;;;25.00;9.13;;;-3.30;99.90;;;;;;5070345;28;20037;-59
2023/01/23 06:23:52;;;;;;;25.30;9.93;;;-3.30;99.90;;;;;;5070211;28;20098;-59
2023/01/23 06:26:19;;;;;;;;;;;-3.40;99.90;;;;;;5067015;28;20052;-60
2023/01/23 06:28:46;;;;;;;17.20;7.70;;;-3.50;99.90;;;;;;5062847;28;20266;-61
2023/01/23 06:34:19;;;;;;;19.05;7.47;;;-3.40;99.90;;;;;;5071298;28;20045;-60
2023/01/23 06:36:54;;;;;;;15.15;6.30;;;-3.40;99.90;;;;;;5065076;28;20041;-59
2023/01/23 06:39:21;;;;;;;;;;;-3.40;99.90;;;;;;5055987;28;20268;-60
2023/01/23 06:41:50;;;;;;;15.32;6.45;;;-3.30;99.90;;;;;;5074121;28;19924;-60
2023/01/23 06:44:22;;;;;;;14.98;6.55;;;-3.20;99.90;;;;;;5068198;28;20501;-60
2023/01/23 06:46:52;;;;;;;12.88;6.65;;;-3.20;99.90;;;;;;5071526;28;20051;-60
2023/01/23 06:49:22;;;;;;;15.65;6.35;;;-3.20;99.90;;;;;;5055488;28;20076;-59
2023/01/23 06:51:48;;;;;;;14.60;6.43;;;-3.20;99.90;;;;;;5062150;28;20400;-61
2023/01/23 06:54:15;;;;;;;;;;;-3.30;99.90;;;;;;5065341;28;20045;-61
2023/01/23 06:56:43;;;;;;;15.43;5.50;;;-3.20;99.90;;;;;;5071290;28;19920;-61
2023/01/23 06:59:11;;;;;;;14.38;7.03;;;-3.20;99.90;;;;;;5054735;28;20036;-61
2023/01/23 07:01:39;;;;;;;15.88;6.70;;;-3.30;99.90;;;;;;5068222;28;20055;-61
2023/01/23 07:04:16;;;;;;;12.73;5.90;;;-3.30;99.90;;;;;;5064535;28;20079;-61
2023/01/23 07:06:45;;;;;;;14.45;6.18;;;-3.20;99.90;;;;;;5069710;28;20036;-60
2023/01/23 07:09:14;;;;;;;11.73;5.15;;;-3.20;99.90;;;;;;5070169;28;20102;-60
2023/01/23 07:11:47;;;;;;;13.60;5.40;;;-3.30;99.90;;;;;;5048298;28;20048;-60
2023/01/23 07:14:13;;;;;;;15.73;5.97;;;-3.30;99.90;;;;;;5054053;28;20502;-60
2023/01/23 07:16:44;;;;;;;20.08;7.07;;;-3.20;99.90;;;;;;5073136;28;20041;-60
2023/01/23 07:19:11;;;;;;;17.73;7.70;;;-3.30;99.90;;;;;;5059182;28;20044;-60
2023/01/23 07:21:39;;;;;;;16.50;7.20;;;-3.30;99.90;;;;;;5067824;28;20078;-61
2023/01/23 07:24:06;;;;;;;19.02;8.30;;;-3.00;99.90;;;;;;5069815;28;20451;-60
2023/01/23 07:26:32;;;;;;;16.98;7.68;;;-3.30;99.90;;;;;;5081819;22;20044;-56
2023/01/23 07:28:59;;;;;;;20.35;8.43;;;-3.20;99.90;;;;;;5092187;28;20039;-53
2023/01/23 07:31:26;;;;;;;19.63;8.82;;;-3.10;99.90;;;;;;5088169;28;20427;-52
2023/01/23 07:33:52;;;;;;;15.65;7.00;;;-3.10;99.90;;;;;;5105336;28;20050;-52
2023/01/23 07:36:19;;;;;;;17.98;8.27;;;-3.10;99.90;;;;;;5112645;28;20075;-51
2023/01/23 07:38:46;;;;;;;11.80;5.82;;;-3.10;99.90;;;;;;5091386;28;20097;-52
2023/01/23 07:41:13;;;;;;;17.50;7.90;;;-3.10;99.90;;;;;;5091889;28;20036;-52
2023/01/23 07:43:39;;;;;;;22.08;8.40;;;-3.00;99.90;;;;;;5092016;28;20040;-48
2023/01/23 07:46:08;;;;;;;13.48;6.28;;;-2.90;99.90;;;;;;5091846;28;20463;-52
2023/01/23 07:48:38;;;;;;;19.08;8.23;;;-2.90;99.90;;;;;;5104206;28;20127;-52
2023/01/23 07:51:05;;;;;;;17.42;8.00;;;-2.80;99.90;;;;;;5112683;28;20523;-54
2023/01/23 07:53:32;;;;;;;14.50;7.35;;;-2.70;99.90;;;;;;5086277;28;20058;-53
2023/01/23 07:56:02;;;;;;;17.88;7.65;;;-2.60;99.90;;;;;;5073848;28;20462;-54
2023/01/23 07:58:29;;;;;;;21.88;8.27;;;-2.70;99.90;;;;;;5091536;28;20113;-52
2023/01/23 08:00:55;;;;;;;18.10;7.70;;;-2.60;99.90;;;;;;5079754;28;20489;-55
2023/01/23 08:03:22;;;;;;;16.27;7.03;;;-2.50;99.90;;;;;;5088470;28;20043;-55
2023/01/23 08:05:49;;;;;;;10.48;4.55;;;-2.50;99.90;;;;;;5071586;28;20442;-51
2023/01/23 08:08:16;;;;;;;29.02;10.05;;;-2.50;99.90;;;;;;5091161;28;20043;-52
2023/01/23 08:10:42;;;;;;;16.10;5.60;;;-2.70;99.90;;;;;;5090482;28;20075;-52
2023/01/23 08:13:10;;;;;;;21.08;7.90;;;-2.70;99.90;;;;;;5090252;28;20088;-55
2023/01/23 08:15:37;;;;;;;20.25;8.45;;;-2.60;99.90;;;;;;5102528;28;20143;-52
2023/01/23 08:18:05;;;;;;;17.45;7.55;;;-2.60;99.90;;;;;;5105346;28;20049;-50
2023/01/23 08:20:31;;;;;;;;;;;-2.50;99.90;;;;;;5108329;28;20040;-54
2023/01/23 08:23:00;;;;;;;19.10;7.30;;;-2.40;99.90;;;;;;5111622;28;20018;-54
2023/01/23 08:25:27;;;;;;;15.77;7.20;;;-2.40;99.90;;;;;;5112043;28;20048;-52
2023/01/23 08:27:54;;;;;;;20.35;7.97;;;-2.30;99.90;;;;;;5097406;28;20101;-53
2023/01/23 08:30:21;;;;;;;16.90;7.68;;;-2.40;99.90;;;;;;5108527;28;20047;-52
2023/01/23 08:32:48;;;;;;;;;;;-2.40;99.90;;;;;;5088783;28;20040;-54
2023/01/23 08:35:15;;;;;;;16.20;7.57;;;-2.30;99.90;;;;;;5090971;28;19920;-52
2023/01/23 08:37:42;;;;;;;18.02;7.38;;;-2.10;99.90;;;;;;5091347;28;20044;-51
2023/01/23 08:40:09;;;;;;;16.70;7.40;;;-2.00;99.90;;;;;;5087285;28;20044;-53
2023/01/23 08:42:36;;;;;;;20.00;8.93;;;-2.00;99.90;;;;;;5089703;28;20070;-52
2023/01/23 08:45:03;;;;;;;23.02;9.85;;;-2.10;99.90;;;;;;5090876;28;20408;-51
2023/01/23 08:47:35;;;;;;;18.83;8.15;;;-2.20;99.90;;;;;;5091416;28;20040;-53
2023/01/23 08:50:03;;;;;;;17.00;7.30;;;-2.10;99.90;;;;;;5084267;28;20548;-51
2023/01/23 08:52:30;;;;;;;14.52;6.30;;;-2.00;99.90;;;;;;5091108;28;20102;-52
2023/01/23 08:54:56;;;;;;;15.98;6.78;;;-1.90;99.90;;;;;;5090887;28;20044;-54
2023/01/23 08:57:23;;;;;;;17.38;8.10;;;-1.90;99.90;;;;;;5091418;28;20168;-53
2023/01/23 08:59:50;;;;;;;18.85;7.90;;;-1.90;99.90;;;;;;5098185;28;20458;-51
2023/01/23 09:02:16;;;;;;;18.90;7.78;;;-1.90;99.90;;;;;;5088421;28;20093;-54
2023/01/23 09:04:43;;;;;;;19.23;8.45;;;-2.00;99.90;;;;;;5091097;28;20036;-52
2023/01/23 09:07:10;;;;;;;16.08;7.60;;;-2.10;99.90;;;;;;5090780;28;20089;-51
2023/01/23 09:09:36;;;;;;;16.63;8.30;;;-2.00;99.90;;;;;;5090359;28;20040;-53
2023/01/23 09:12:03;;;;;;;19.73;7.75;;;-1.90;99.90;;;;;;5102791;28;20488;-53
2023/01/23 09:14:30;;;;;;;18.60;8.18;;;-1.90;99.90;;;;;;5089049;28;20044;-53
2023/01/23 09:16:57;;;;;;;22.90;8.95;;;-1.80;99.90;;;;;;5090753;28;20245;-53
2023/01/23 09:19:23;;;;;;;12.30;5.78;;;-1.70;99.90;;;;;;5095641;28;20036;-54
2023/01/23 09:21:53;;;;;;;20.52;8.55;;;-1.50;99.90;;;;;;5113908;28;20043;-51
2023/01/23 09:24:20;;;;;;;23.10;8.60;;;-1.50;99.90;;;;;;5114601;28;20051;-55
2023/01/23 09:26:46;;;;;;;20.17;8.88;;;-1.50;99.90;;;;;;5115334;28;20500;-54
2023/01/23 09:29:14;;;;;;;17.55;8.60;;;-1.50;99.90;;;;;;5090316;28;20036;-52
2023/01/23 09:31:41;;;;;;;23.17;9.10;;;-1.60;99.90;;;;;;5093996;28;20557;-52
2023/01/23 09:34:07;;;;;;;16.77;6.65;;;-1.60;99.90;;;;;;5085477;28;20051;-52
2023/01/23 09:36:34;;;;;;;19.20;9.02;;;-1.60;99.90;;;;;;5104833;28;20348;-51
2023/01/23 09:39:09;;;;;;;19.20;8.00;;;-1.70;99.90;;;;;;5114988;28;20041;-53
2023/01/23 09:41:38;;;;;;;;;;;-1.70;99.90;;;;;;5102514;28;20076;-51
2023/01/23 09:44:09;;;;;;;15.20;7.65;;;-1.60;99.90;;;;;;5094638;28;20376;-53
2023/01/23 09:46:48;;;;;;;19.85;8.05;;;-1.60;99.90;;;;;;5095318;28;20483;-52
2023/01/23 09:49:29;;;;;;;19.08;8.68;;;-1.50;99.90;;;;;;5106212;28;20721;-52
2023/01/23 09:52:06;;;;;;;17.27;8.63;;;-1.40;99.90;;;;;;5095621;28;20047;-53
2023/01/23 09:54:43;;;;;;;20.00;9.35;;;-1.40;99.90;;;;;;5094686;28;20501;-53
2023/01/23 09:57:32;;;;;;;21.58;9.65;;;-1.50;99.90;;;;;;5092639;28;20050;-54
2023/01/23 10:00:11;;;;;;;18.00;8.05;;;-1.60;99.90;;;;;;5108167;28;20085;-51
2023/01/23 10:02:42;;;;;;;19.88;8.98;;;-1.60;99.90;;;;;;5114018;28;20035;-51
2023/01/23 10:05:17;;;;;;;16.90;8.80;;;-1.40;99.90;;;;;;5097048;28;20036;-53
2023/01/23 10:07:56;;;;;;;18.55;8.23;;;-1.10;99.90;;;;;;5094062;28;20077;-51
2023/01/23 10:10:43;;;;;;;18.67;9.38;;;-0.80;99.90;;;;;;5093825;28;20561;-54
2023/01/23 10:13:28;;;;;;;20.75;9.32;;;-0.60;99.90;;;;;;5086310;28;20036;-56
2023/01/23 10:16:30;;;;;;;20.40;9.38;;;-0.40;99.90;;;;;;5086981;28;20089;-54
2023/01/23 10:19:18;;;;;;;11.80;5.63;;;-0.10;99.90;;;;;;5086423;28;20047;-52
2023/01/23 10:21:44;;;;;;;20.15;8.57;;;-0.10;99.90;;;;;;5073336;28;20076;-53
2023/01/23 10:24:43;;;;;;;18.40;8.32;;;0.10;99.90;;;;;;5092504;28;20083;-54
2023/01/23 10:27:23;;;;;;;21.85;7.57;;;0.40;99.90;;;;;;5093336;28;20047;-52
2023/01/23 10:30:04;;;;;;;18.23;8.27;;;0.90;99.90;;;;;;5098422;28;20043;-53
2023/01/23 10:32:45;;;;;;;21.40;8.68;;;1.10;99.90;;;;;;5111003;28;20472;-53
2023/01/23 10:35:18;;;;;;;16.10;7.45;;;1.00;99.90;;;;;;5097298;28;20044;-53
2023/01/23 10:38:11;;;;;;;17.38;8.10;;;0.80;99.90;;;;;;5075283;28;20432;-54
2023/01/23 10:43:25;;;;;;;17.80;9.15;;;0.40;99.90;;;;;;5092986;28;20465;-51
2023/01/23 10:45:52;;;;;;;19.95;8.45;;;0.10;99.90;;;;;;5092888;28;20047;-52
2023/01/23 10:48:31;;;;;;;18.17;9.35;;;-0.10;99.90;;;;;;5089993;28;20060;-54
2023/01/23 10:50:59;;;;;;;21.48;7.88;;;-0.10;99.90;;;;;;5086671;28;20036;-51
2023/01/23 10:53:26;;;;;;;15.20;7.88;;;-0.10;99.90;;;;;;5092557;28;20508;-51
2023/01/23 10:55:57;;;;;;;14.68;7.88;;;0.10;99.90;;;;;;5092143;28;20089;-55
2023/01/23 10:58:33;;;;;;;18.20;8.38;;;0.20;99.90;;;;;;5091488;28;20052;-54
2023/01/23 11:01:00;;;;;;;16.05;8.20;;;0.30;99.90;;;;;;5093027;28;20386;-52
2023/01/23 11:03:32;;;;;;;17.42;9.25;;;0.60;99.90;;;;;;5092628;28;20044;-53
2023/01/23 11:06:08;;;;;;;18.60;8.55;;;0.80;99.90;;;;;;5090961;28;20048;-54
2023/01/23 11:08:36;;;;;;;18.33;8.93;;;0.90;99.90;;;;;;5091640;28;20055;-53
2023/01/23 11:11:15;;;;;;;19.50;9.48;;;0.90;99.90;;;;;;5074836;28;20048;-54
2023/01/23 11:13:43;;;;;;;19.48;8.32;;;1.10;99.90;;;;;;5092978;28;20059;-53
2023/01/23 11:16:14;;;;;;;19.40;9.15;;;1.20;99.90;;;;;;5088149;28;20033;-51
2023/01/23 11:18:54;;;;;;;19.67;8.48;;;1.30;99.90;;;;;;5092921;28;20090;-53
2023/01/23 11:21:34;;;;;;;20.90;9.77;;;1.40;99.90;;;;;;5081441;28;20056;-54
2023/01/23 11:24:18;;;;;;;19.25;9.25;;;1.30;99.90;;;;;;5089302;28;20496;-52
2023/01/23 11:27:05;;;;;;;20.48;8.50;;;1.10;99.90;;;;;;5090695;28;20307;-51
2023/01/23 11:29:51;;;;;;;19.20;8.80;;;0.80;99.90;;;;;;5092520;28;20068;-51
2023/01/23 11:32:21;;;;;;;25.88;9.30;;;0.50;99.90;;;;;;5088484;28;20048;-51
2023/01/23 11:34:52;;;;;;;24.65;9.75;;;0.20;99.90;;;;;;5092677;28;20071;-51
2023/01/23 11:37:27;;;;;;;24.75;10.07;;;0.20;99.90;;;;;;5092227;28;20105;-54
2023/01/23 11:39:57;;;;;;;22.75;10.10;;;-0.10;99.90;;;;;;5083615;28;20072;-52
2023/01/23 11:42:26;;;;;;;22.35;9.95;;;-0.10;99.90;;;;;;5088662;28;20044;-51
2023/01/23 11:44:58;;;;;;;23.40;9.23;;;-0.20;99.90;;;;;;5091935;28;20481;-52
2023/01/23 11:47:41;;;;;;;24.60;9.88;;;-0.10;99.90;;;;;;5091968;28;20101;-52
2023/01/23 11:50:52;;;;;;;22.77;10.35;;;0.10;99.90;;;;;;5100770;28;20117;-52
2023/01/23 11:53:57;;;;;;;24.50;10.90;;;0.10;99.90;;;;;;5064412;28;20064;-52
2023/01/23 11:56:39;;;;;;;23.15;10.15;;;0.20;99.90;;;;;;5070802;28;20051;-54
2023/01/23 11:59:31;;;;;;;24.42;10.13;;;0.30;99.90;;;;;;5091874;28;20044;-53
2023/01/23 12:02:25;;;;;;;23.20;10.13;;;0.50;99.90;;;;;;5082312;28;20036;-52
2023/01/23 12:05:14;;;;;;;21.80;9.25;;;0.50;99.90;;;;;;5104712;28;20591;-51
2023/01/23 12:07:57;;;;;;;22.58;10.02;;;0.60;99.90;;;;;;5111706;28;20047;-52
2023/01/23 12:10:42;;;;;;;23.67;9.73;;;0.70;99.90;;;;;;5088882;28;20113;-51
2023/01/23 12:13:17;;;;;;;22.98;10.65;;;0.80;99.90;;;;;;5098437;28;20035;-51
2023/01/23 12:16:05;;;;;;;21.27;10.05;;;0.90;99.90;;;;;;5111998;28;20043;-54
2023/01/23 12:18:41;;;;;;;18.98;9.85;;;1.10;99.90;;;;;;5108291;28;20127;-56
2023/01/23 12:21:17;;;;;;;19.42;9.90;;;1.20;99.90;;;;;;5091766;28;20085;-52
2023/01/23 12:24:09;;;;;;;23.05;10.60;;;1.40;99.90;;;;;;5111721;28;20036;-53
2023/01/23 12:26:49;;;;;;;23.70;9.77;;;1.40;99.90;;;;;;5111882;28;20099;-53
2023/01/23 12:29:48;;;;;;;22.23;10.23;;;1.30;99.90;;;;;;5086864;28;20101;-52
2023/01/23 12:32:42;;;;;;;36.15;10.20;;;1.20;99.90;;;;;;5106883;28;20302;-53
2023/01/23 12:35:26;;;;;;;23.85;11.30;;;1.10;99.90;;;;;;5112096;28;20043;-52
2023/01/23 12:37:59;;;;;;;24.77;10.15;;;1.30;99.90;;;;;;5090133;28;20044;-52
2023/01/23 12:40:32;;;;;;;24.75;10.82;;;1.40;99.90;;;;;;5091345;28;20044;-53
2023/01/23 12:43:04;;;;;;;22.60;9.68;;;1.80;99.90;;;;;;5090950;28;20129;-54
2023/01/23 12:45:32;;;;;;;21.83;10.73;;;2.10;99.90;;;;;;5097966;28;20040;-51
2023/01/23 12:48:11;;;;;;;21.35;10.30;;;2.30;99.90;;;;;;5105119;28;20096;-50
2023/01/23 12:50:44;;;;;;;21.42;10.18;;;2.30;99.90;;;;;;5105928;28;20051;-51
2023/01/23 12:53:25;;;;;;;22.63;11.15;;;2.60;99.90;;;;;;5082108;28;20070;-51
2023/01/23 12:56:01;;;;;;;23.45;10.73;;;2.90;99.90;;;;;;5082649;28;20052;-52
2023/01/23 12:58:32;;;;;;;23.75;11.30;;;3.20;99.90;;;;;;5090548;28;20492;-55
2023/01/23 13:01:29;;;;;;;19.05;9.50;;;3.40;99.90;;;;;;5092020;28;20071;-51
2023/01/23 13:04:14;;;;;;;25.75;10.48;;;3.50;99.90;;;;;;5097839;28;20058;-51
2023/01/23 13:07:20;;;;;;;25.25;11.75;;;3.50;99.90;;;;;;5091800;28;20040;-51
2023/01/23 13:09:49;;;;;;;23.65;10.07;;;3.50;99.90;;;;;;5091074;28;20044;-52
2023/01/23 13:12:24;;;;;;;19.05;9.75;;;3.10;99.90;;;;;;5090496;28;20126;-52
2023/01/23 13:14:53;;;;;;;19.77;10.27;;;2.90;99.90;;;;;;5094313;28;20528;-52
2023/01/23 13:17:47;;;;;;;26.00;10.18;;;2.60;99.90;;;;;;5102693;28;20061;-51